createdAt,value
2022-12-05T00:01:13.157Z,3.80
2022-12-05T00:03:41.052Z,3.90
2022-12-05T00:06:09.094Z,3.80
2022-12-05T00:08:38.266Z,3.90
2022-12-05T00:11:11.643Z,3.90
2022-12-05T00:13:40.509Z,3.90
2022-12-05T00:16:09.268Z,3.90
2022-12-05T00:18:37.153Z,3.90
2022-12-05T00:21:05.451Z,3.90
2022-12-05T00:23:33.405Z,3.90
2022-12-05T00:26:04.758Z,4.00
2022-12-05T00:28:33.013Z,4.00
2022-12-05T00:31:03.157Z,4.00
2022-12-05T00:33:31.016Z,3.90
2022-12-05T00:36:02.263Z,3.90
2022-12-05T00:38:30.160Z,3.90
2022-12-05T00:40:58.168Z,3.90
2022-12-05T00:43:28.166Z,3.90
2022-12-05T00:45:56.130Z,3.90
2022-12-05T00:48:24.021Z,3.90
2022-12-05T00:50:51.890Z,3.90
2022-12-05T00:53:19.716Z,3.90
2022-12-05T00:55:47.522Z,4.00
2022-12-05T00:58:15.361Z,4.20
2022-12-05T01:00:44.573Z,3.90
2022-12-05T01:03:12.457Z,3.90
2022-12-05T01:05:40.400Z,3.90
2022-12-05T01:08:08.258Z,3.90
2022-12-05T01:10:36.160Z,3.90
2022-12-05T01:13:03.984Z,3.90
2022-12-05T01:15:31.829Z,3.90
2022-12-05T01:18:01.050Z,4.00
2022-12-05T01:20:28.911Z,4.00
2022-12-05T01:22:56.708Z,4.00
2022-12-05T01:25:24.560Z,4.00
2022-12-05T01:27:52.562Z,4.00
2022-12-05T01:30:20.740Z,4.00
2022-12-05T01:32:48.757Z,4.00
2022-12-05T01:35:18.416Z,4.00
2022-12-05T01:37:46.636Z,4.10
2022-12-05T01:40:14.646Z,4.00
2022-12-05T01:42:42.670Z,4.00
2022-12-05T01:45:15.319Z,4.00
2022-12-05T01:47:43.592Z,4.00
2022-12-05T01:50:12.103Z,4.10
2022-12-05T01:52:41.570Z,4.00
2022-12-05T01:55:11.483Z,4.00
2022-12-05T01:57:39.503Z,4.10
2022-12-05T02:00:10.294Z,4.00
2022-12-05T02:02:38.340Z,4.00
2022-12-05T02:05:07.292Z,4.10
2022-12-05T02:07:36.047Z,4.00
2022-12-05T02:10:05.647Z,4.00
2022-12-05T02:12:33.901Z,4.00
2022-12-05T02:15:07.443Z,4.00
2022-12-05T02:17:39.129Z,4.00
2022-12-05T02:20:11.153Z,4.00
2022-12-05T02:22:52.087Z,4.10
2022-12-05T02:25:27.751Z,4.00
2022-12-05T02:28:04.261Z,4.10
2022-12-05T02:30:37.988Z,4.00
2022-12-05T02:33:11.663Z,4.10
2022-12-05T02:35:42.617Z,4.10
2022-12-05T02:38:16.817Z,4.10
2022-12-05T02:40:47.329Z,4.10
2022-12-05T02:43:17.719Z,4.00
2022-12-05T02:45:49.461Z,4.10
2022-12-05T02:48:19.027Z,4.10
2022-12-05T02:50:48.499Z,4.10
2022-12-05T02:53:17.412Z,4.30
2022-12-05T02:55:46.324Z,4.10
2022-12-05T02:58:15.599Z,4.10
2022-12-05T03:00:45.144Z,4.00
2022-12-05T03:03:15.646Z,4.00
2022-12-05T03:05:46.015Z,4.00
2022-12-05T03:08:17.814Z,4.00
2022-12-05T03:10:46.559Z,4.00
2022-12-05T03:13:16.105Z,4.00
2022-12-05T03:15:46.798Z,4.00
2022-12-05T03:18:17.970Z,4.00
2022-12-05T03:20:47.882Z,4.00
2022-12-05T03:23:17.986Z,4.00
2022-12-05T03:25:51.652Z,4.00
2022-12-05T03:28:21.687Z,4.00
2022-12-05T03:30:53.200Z,4.00
2022-12-05T03:33:24.594Z,3.90
2022-12-05T03:35:59.712Z,3.90
2022-12-05T03:38:31.850Z,3.90
2022-12-05T03:41:03.514Z,3.90
2022-12-05T03:43:36.376Z,3.90
2022-12-05T03:46:06.066Z,3.90
2022-12-05T03:48:36.963Z,3.90
2022-12-05T03:51:05.822Z,3.90
2022-12-05T03:53:37.133Z,3.90
2022-12-05T03:56:07.479Z,3.90
2022-12-05T03:58:38.984Z,4.20
2022-12-05T04:01:07.710Z,3.90
2022-12-05T04:03:42.689Z,3.90
2022-12-05T04:06:13.383Z,3.90
2022-12-05T04:08:43.194Z,3.90
2022-12-05T04:11:14.701Z,3.90
2022-12-05T04:13:44.579Z,3.90
2022-12-05T04:16:31.707Z,3.90
2022-12-05T04:19:02.993Z,3.90
2022-12-05T04:21:38.581Z,4.00
2022-12-05T04:24:25.045Z,4.00
2022-12-05T04:26:57.580Z,4.00
2022-12-05T04:29:27.728Z,4.00
2022-12-05T04:31:59.605Z,4.00
2022-12-05T04:34:30.872Z,4.00
2022-12-05T04:37:00.764Z,4.00
2022-12-05T04:39:30.236Z,4.10
2022-12-05T04:41:59.468Z,3.90
2022-12-05T04:44:29.514Z,3.90
2022-12-05T04:46:58.411Z,4.00
2022-12-05T04:49:27.722Z,4.00
2022-12-05T04:51:58.311Z,4.00
2022-12-05T04:54:29.143Z,4.10
2022-12-05T04:57:01.370Z,4.40
2022-12-05T04:59:29.434Z,4.10
2022-12-05T05:01:59.468Z,4.00
2022-12-05T05:04:29.471Z,4.00
2022-12-05T05:06:58.665Z,4.10
2022-12-05T05:09:26.626Z,4.00
2022-12-05T05:11:54.456Z,4.10
2022-12-05T05:14:22.298Z,4.10
2022-12-05T05:16:50.097Z,4.10
2022-12-05T05:19:17.868Z,4.10
2022-12-05T05:21:45.720Z,4.00
2022-12-05T05:24:15.605Z,4.10
2022-12-05T05:26:44.714Z,4.10
2022-12-05T05:29:13.212Z,4.20
2022-12-05T05:31:41.960Z,4.20
2022-12-05T05:34:10.791Z,4.20
2022-12-05T05:36:39.137Z,4.10
2022-12-05T05:39:08.102Z,4.40
2022-12-05T05:41:37.618Z,4.20
2022-12-05T05:44:06.018Z,4.20
2022-12-05T05:46:35.205Z,4.20
2022-12-05T05:49:03.150Z,4.20
2022-12-05T05:51:31.032Z,4.20
2022-12-05T05:53:59.269Z,4.20
2022-12-05T05:56:27.157Z,4.20
2022-12-05T05:59:00.325Z,4.20
2022-12-05T06:01:28.670Z,4.20
2022-12-05T06:03:56.625Z,4.30
2022-12-05T06:06:24.654Z,4.30
2022-12-05T06:08:52.608Z,4.50
2022-12-05T06:11:25.942Z,4.30
2022-12-05T06:13:54.390Z,4.30
2022-12-05T06:16:24.136Z,4.30
2022-12-05T06:18:52.854Z,4.30
2022-12-05T06:21:20.701Z,4.30
2022-12-05T06:23:48.527Z,4.50
2022-12-05T06:26:17.568Z,4.00
2022-12-05T06:28:45.495Z,4.30
2022-12-05T06:31:14.289Z,4.30
2022-12-05T06:33:43.776Z,4.30
2022-12-05T06:36:12.483Z,4.30
2022-12-05T06:38:42.501Z,4.30
2022-12-05T06:41:12.428Z,4.20
2022-12-05T06:43:40.368Z,4.30
2022-12-05T06:46:09.113Z,4.30
2022-12-05T06:48:37.179Z,4.30
2022-12-05T06:51:07.386Z,4.30
2022-12-05T06:53:35.231Z,4.30
2022-12-05T06:56:04.343Z,4.30
2022-12-05T06:58:32.327Z,4.30
2022-12-05T07:01:17.730Z,4.30
2022-12-05T07:03:47.683Z,4.30
2022-12-05T07:06:17.448Z,4.40
2022-12-05T07:08:45.489Z,4.40
2022-12-05T07:11:13.324Z,4.40
2022-12-05T07:13:41.160Z,4.40
2022-12-05T07:16:09.330Z,4.20
2022-12-05T07:18:37.747Z,4.30
2022-12-05T07:21:14.382Z,4.30
2022-12-05T07:23:45.467Z,4.30
2022-12-05T07:26:14.557Z,4.40
2022-12-05T07:28:42.468Z,4.40
2022-12-05T07:31:11.808Z,4.40
2022-12-05T07:33:39.866Z,4.40
2022-12-05T07:36:09.119Z,4.30
2022-12-05T07:38:36.896Z,4.40
2022-12-05T07:41:12.849Z,4.40
2022-12-05T07:43:41.497Z,4.40
2022-12-05T07:46:11.450Z,4.40
2022-12-05T07:48:40.064Z,4.40
2022-12-05T07:51:08.832Z,4.40
2022-12-05T07:53:37.148Z,4.40
2022-12-05T07:56:06.989Z,4.40
2022-12-05T07:58:36.642Z,4.50
2022-12-05T08:01:07.901Z,4.50
2022-12-05T08:03:37.393Z,4.50
2022-12-05T08:06:05.770Z,4.50
2022-12-05T08:08:33.670Z,4.50
2022-12-05T08:11:04.145Z,4.60
2022-12-05T08:13:32.120Z,4.50
2022-12-05T08:16:03.701Z,4.60
2022-12-05T08:18:31.593Z,4.60
2022-12-05T08:21:02.739Z,4.60
2022-12-05T08:23:31.787Z,4.60
2022-12-05T08:26:02.786Z,4.60
2022-12-05T08:28:30.808Z,4.60
2022-12-05T08:31:05.207Z,4.70
2022-12-05T08:33:33.119Z,4.70
2022-12-05T08:36:01.858Z,4.70
2022-12-05T08:38:29.817Z,4.70
2022-12-05T08:40:57.689Z,4.70
2022-12-05T08:43:25.485Z,4.70
2022-12-05T08:45:53.929Z,4.70
2022-12-05T08:48:28.844Z,4.80
2022-12-05T08:50:57.547Z,4.80
2022-12-05T08:53:25.522Z,4.80
2022-12-05T08:55:53.345Z,4.80
2022-12-05T08:58:21.170Z,4.90
2022-12-05T09:00:49.018Z,5.00
2022-12-05T09:03:16.846Z,5.00
2022-12-05T09:05:46.076Z,5.00
2022-12-05T09:08:13.947Z,4.90
2022-12-05T09:10:41.808Z,5.00
2022-12-05T09:13:09.790Z,5.00
2022-12-05T09:15:39.183Z,5.20
2022-12-05T09:18:07.127Z,5.10
2022-12-05T09:20:34.912Z,5.10
2022-12-05T09:23:04.148Z,5.10
2022-12-05T09:25:31.969Z,5.10
2022-12-05T09:27:59.783Z,5.10
2022-12-05T09:30:27.682Z,5.10
2022-12-05T09:32:55.589Z,5.50
2022-12-05T09:35:23.476Z,5.30
2022-12-05T09:37:51.337Z,5.20
2022-12-05T09:40:20.558Z,5.20
2022-12-05T09:42:55.288Z,5.20
2022-12-05T09:45:29.873Z,5.40
2022-12-05T09:48:00.065Z,5.30
2022-12-05T09:50:28.747Z,5.30
2022-12-05T09:53:01.302Z,5.40
2022-12-05T09:55:36.445Z,5.30
2022-12-05T09:58:04.990Z,5.30
2022-12-05T10:00:33.594Z,5.30
2022-12-05T10:03:08.532Z,5.40
2022-12-05T10:05:40.809Z,5.40
2022-12-05T10:08:12.464Z,5.30
2022-12-05T10:10:47.828Z,5.40
2022-12-05T10:13:20.734Z,5.40
2022-12-05T10:15:54.277Z,5.50
2022-12-05T10:18:29.469Z,5.50
2022-12-05T10:20:59.197Z,5.50
2022-12-05T10:23:56.160Z,5.40
2022-12-05T10:26:18.535Z,5.50
2022-12-05T10:28:51.316Z,5.50
2022-12-05T10:31:21.302Z,5.50
2022-12-05T10:33:52.927Z,5.60
2022-12-05T10:36:20.720Z,5.60
2022-12-05T10:38:50.266Z,5.70
2022-12-05T10:41:19.467Z,5.60
2022-12-05T10:43:47.447Z,5.70
2022-12-05T10:46:17.543Z,5.70
2022-12-05T10:48:45.564Z,5.70
2022-12-05T10:51:15.042Z,5.70
2022-12-05T10:53:44.049Z,5.70
2022-12-05T10:56:38.802Z,5.60
2022-12-05T10:59:08.597Z,5.70
2022-12-05T11:01:38.738Z,5.60
2022-12-05T11:04:13.800Z,5.70
2022-12-05T11:06:49.900Z,5.60
2022-12-05T11:09:20.411Z,5.70
2022-12-05T11:11:59.213Z,5.70
2022-12-05T11:14:29.720Z,5.70
2022-12-05T11:16:58.645Z,5.60
2022-12-05T11:19:28.130Z,5.70
2022-12-05T11:21:56.622Z,5.60
2022-12-05T11:24:27.238Z,5.60
2022-12-05T11:26:55.076Z,5.70
2022-12-05T11:29:31.632Z,5.70
2022-12-05T11:31:59.470Z,5.70
2022-12-05T11:34:30.623Z,5.70
2022-12-05T11:37:00.068Z,5.70
2022-12-05T11:39:27.938Z,5.70
2022-12-05T11:42:06.553Z,5.70
2022-12-05T11:44:52.484Z,5.80
2022-12-05T11:47:24.096Z,5.70
2022-12-05T11:50:02.314Z,5.80
2022-12-05T11:52:40.454Z,5.80
2022-12-05T11:55:15.078Z,5.80
2022-12-05T11:57:53.553Z,5.90
2022-12-05T12:00:25.974Z,6.00
2022-12-05T12:03:15.956Z,6.00
2022-12-05T12:05:46.067Z,5.90
2022-12-05T12:08:20.031Z,6.00
2022-12-05T12:10:52.154Z,5.90
2022-12-05T12:13:28.554Z,6.00
2022-12-05T12:16:08.596Z,6.00
2022-12-05T12:18:46.641Z,5.90
2022-12-05T12:21:18.203Z,5.90
2022-12-05T12:23:57.743Z,6.00
2022-12-05T12:26:28.931Z,5.90
2022-12-05T12:29:00.381Z,5.80
2022-12-05T12:31:37.182Z,5.80
2022-12-05T12:34:08.245Z,5.90
2022-12-05T12:36:39.037Z,5.90
2022-12-05T12:39:10.958Z,5.90
2022-12-05T12:41:46.304Z,5.90
2022-12-05T12:44:24.561Z,5.90
2022-12-05T12:46:54.940Z,5.90
2022-12-05T12:49:35.293Z,5.80
2022-12-05T12:52:03.966Z,5.80
2022-12-05T12:55:02.916Z,5.80
2022-12-05T12:57:33.070Z,5.90
2022-12-05T13:00:04.790Z,5.90
2022-12-05T13:02:37.155Z,5.90
2022-12-05T13:05:08.031Z,6.10
2022-12-05T13:07:37.890Z,6.10
2022-12-05T13:10:08.392Z,6.20
2022-12-05T13:12:38.688Z,6.10
2022-12-05T13:15:08.241Z,6.20
2022-12-05T13:17:40.202Z,6.20
2022-12-05T13:20:15.445Z,6.20
2022-12-05T13:22:43.757Z,6.20
2022-12-05T13:25:14.560Z,6.20
2022-12-05T13:27:54.660Z,6.20
2022-12-05T13:30:22.516Z,6.20
2022-12-05T13:32:56.137Z,6.30
2022-12-05T13:35:46.533Z,6.30
2022-12-05T13:38:38.273Z,6.30
2022-12-05T13:41:23.951Z,6.20
2022-12-05T13:44:05.797Z,6.30
2022-12-05T13:46:35.561Z,6.20
2022-12-05T13:49:08.869Z,6.20
2022-12-05T13:51:41.136Z,6.20
2022-12-05T13:54:13.192Z,6.10
2022-12-05T13:56:48.984Z,6.10
2022-12-05T13:59:31.709Z,6.20
2022-12-05T14:01:59.757Z,6.20
2022-12-05T14:04:46.398Z,6.20
2022-12-05T14:07:35.597Z,6.20
2022-12-05T14:10:03.545Z,6.20
2022-12-05T14:12:44.506Z,6.20
2022-12-05T14:15:25.017Z,6.20
2022-12-05T14:17:56.919Z,6.20
2022-12-05T14:20:26.693Z,6.20
2022-12-05T14:23:01.470Z,6.20
2022-12-05T14:25:57.728Z,6.20
2022-12-05T14:28:39.501Z,6.20
2022-12-05T14:31:16.052Z,6.10
2022-12-05T14:33:44.030Z,6.00
2022-12-05T14:36:16.761Z,6.10
2022-12-05T14:38:46.049Z,6.00
2022-12-05T14:41:15.401Z,6.00
2022-12-05T14:43:43.566Z,5.90
2022-12-05T14:46:17.631Z,5.90
2022-12-05T14:48:48.332Z,5.90
2022-12-05T14:51:34.746Z,5.90
2022-12-05T14:54:07.100Z,5.90
2022-12-05T14:56:36.229Z,5.90
2022-12-05T14:59:07.917Z,5.80
2022-12-05T15:01:40.648Z,5.90
2022-12-05T15:04:11.359Z,5.80
2022-12-05T15:06:45.874Z,5.80
2022-12-05T15:09:37.050Z,5.70
2022-12-05T15:12:09.700Z,5.80
2022-12-05T15:14:41.181Z,5.80
2022-12-05T15:17:13.116Z,5.70
2022-12-05T15:19:44.603Z,5.70
2022-12-05T15:22:15.016Z,5.80
2022-12-05T15:24:44.226Z,5.80
2022-12-05T15:27:12.673Z,5.80
2022-12-05T15:29:41.217Z,5.80
2022-12-05T15:32:16.968Z,5.80
2022-12-05T15:34:46.611Z,5.70
2022-12-05T15:37:16.506Z,5.70
2022-12-05T15:39:52.932Z,5.70
2022-12-05T15:42:24.802Z,5.70
2022-12-05T15:45:01.544Z,5.70
2022-12-05T15:47:29.393Z,5.70
2022-12-05T15:49:58.173Z,5.70
2022-12-05T15:52:30.697Z,5.60
2022-12-05T15:55:01.522Z,5.60
2022-12-05T15:57:32.735Z,5.60
2022-12-05T16:00:03.075Z,5.60
2022-12-05T16:02:35.841Z,5.70
2022-12-05T16:05:03.759Z,5.70
2022-12-05T16:07:32.258Z,5.70
2022-12-05T16:10:02.908Z,5.70
2022-12-05T16:12:34.596Z,5.70
2022-12-05T16:15:03.955Z,5.70
2022-12-05T16:17:38.969Z,5.70
2022-12-05T16:20:21.966Z,5.70
2022-12-05T16:22:50.742Z,5.70
2022-12-05T16:25:23.337Z,5.70
2022-12-05T16:27:58.617Z,5.70
2022-12-05T16:30:26.767Z,5.70
2022-12-05T16:32:59.929Z,5.70
2022-12-05T16:35:32.354Z,5.60
2022-12-05T16:38:21.023Z,5.60
2022-12-05T16:40:54.590Z,5.50
2022-12-05T16:43:25.482Z,5.60
2022-12-05T16:45:54.208Z,5.60
2022-12-05T16:48:23.260Z,5.70
2022-12-05T16:50:52.271Z,5.70
2022-12-05T16:53:22.644Z,5.60
2022-12-05T16:55:50.947Z,5.60
2022-12-05T16:58:22.135Z,5.60
2022-12-05T17:00:50.564Z,5.60
2022-12-05T17:03:34.036Z,5.60
2022-12-05T17:06:02.878Z,5.50
2022-12-05T17:08:30.688Z,5.50
2022-12-05T17:10:58.862Z,5.40
2022-12-05T17:13:28.070Z,5.40
2022-12-05T17:15:56.032Z,5.40
2022-12-05T17:18:29.627Z,5.40
2022-12-05T17:21:01.177Z,5.40
2022-12-05T17:23:29.117Z,5.60
2022-12-05T17:25:57.839Z,5.40
2022-12-05T17:28:26.162Z,5.40
2022-12-05T17:30:55.369Z,5.40
2022-12-05T17:33:23.256Z,5.40
2022-12-05T17:35:52.020Z,5.40
2022-12-05T17:38:19.873Z,5.50
2022-12-05T17:40:47.977Z,5.50
2022-12-05T17:43:21.440Z,5.50
2022-12-05T17:45:53.175Z,5.40
2022-12-05T17:48:22.477Z,5.50
2022-12-05T17:50:50.465Z,5.90
2022-12-05T17:53:19.487Z,5.50
2022-12-05T17:55:48.684Z,5.50
2022-12-05T17:58:16.813Z,5.50
2022-12-05T18:00:45.432Z,5.50
2022-12-05T18:03:13.692Z,5.50
2022-12-05T18:05:42.968Z,5.40
2022-12-05T18:08:11.250Z,5.50
2022-12-05T18:10:41.713Z,5.50
2022-12-05T18:13:09.571Z,5.50
2022-12-05T18:15:42.467Z,5.50
2022-12-05T18:18:12.848Z,5.50
2022-12-05T18:20:40.708Z,5.50
2022-12-05T18:23:09.926Z,5.60
2022-12-05T18:25:37.778Z,5.60
2022-12-05T18:28:05.876Z,5.60
2022-12-05T18:30:33.764Z,5.60
2022-12-05T18:33:01.648Z,5.50
2022-12-05T18:35:41.849Z,5.60
2022-12-05T18:38:11.774Z,5.50
2022-12-05T18:40:39.627Z,5.50
2022-12-05T18:43:07.515Z,5.50
2022-12-05T18:45:35.384Z,5.50
2022-12-05T18:48:37.706Z,5.50
2022-12-05T18:50:51.195Z,5.40
2022-12-05T18:53:20.546Z,5.50
2022-12-05T18:58:36.502Z,5.50
2022-12-05T19:01:05.361Z,5.50
2022-12-05T19:03:33.395Z,5.60
2022-12-05T19:06:01.265Z,5.60
2022-12-05T19:08:30.445Z,5.60
2022-12-05T19:10:58.291Z,5.60
2022-12-05T19:13:26.178Z,5.70
2022-12-05T19:16:01.742Z,5.60
2022-12-05T19:18:29.651Z,5.60
2022-12-05T19:20:57.572Z,5.70
2022-12-05T19:23:25.510Z,5.70
2022-12-05T19:25:56.693Z,5.70
2022-12-05T19:28:24.495Z,5.70
2022-12-05T19:30:59.450Z,5.70
2022-12-05T19:33:30.955Z,5.70
2022-12-05T19:36:02.529Z,5.70
2022-12-05T19:38:31.675Z,5.70
2022-12-05T19:41:00.859Z,5.80
2022-12-05T19:43:29.082Z,5.80
2022-12-05T19:45:57.018Z,5.80
2022-12-05T19:48:25.174Z,5.80
2022-12-05T19:50:56.626Z,5.80
2022-12-05T19:53:24.828Z,5.80
2022-12-05T19:55:54.129Z,5.70
2022-12-05T19:58:23.357Z,5.80
2022-12-05T20:00:52.530Z,5.80
2022-12-05T20:03:20.526Z,5.80
2022-12-05T20:05:56.717Z,5.80
2022-12-05T20:08:24.719Z,5.80
2022-12-05T20:10:53.052Z,5.90
2022-12-05T20:13:45.465Z,5.80
2022-12-05T20:16:10.933Z,5.90
2022-12-05T20:18:39.959Z,5.90
2022-12-05T20:21:08.498Z,5.90
2022-12-05T20:23:36.585Z,5.90
2022-12-05T20:26:05.269Z,5.90
2022-12-05T20:28:33.533Z,5.90
2022-12-05T20:31:05.660Z,5.80
2022-12-05T20:33:35.215Z,5.90
2022-12-05T20:36:03.938Z,6.00
2022-12-05T20:38:31.877Z,6.00
2022-12-05T20:41:00.538Z,6.00
2022-12-05T20:43:28.942Z,6.00
2022-12-05T20:45:57.185Z,6.00
2022-12-05T20:48:26.458Z,5.90
2022-12-05T20:50:55.960Z,6.00
2022-12-05T20:53:23.801Z,6.00
2022-12-05T20:55:51.636Z,6.00
2022-12-05T20:58:19.468Z,6.00
2022-12-05T21:00:47.311Z,6.00
2022-12-05T21:03:17.402Z,6.00
2022-12-05T21:05:45.436Z,6.00
2022-12-05T21:08:14.702Z,6.00
2022-12-05T21:10:44.950Z,6.00
2022-12-05T21:13:12.813Z,6.00
2022-12-05T21:15:40.672Z,6.10
2022-12-05T21:18:08.579Z,6.10
2022-12-05T21:20:41.806Z,6.00
2022-12-05T21:23:10.123Z,6.10
2022-12-05T21:25:39.354Z,6.10
2022-12-05T21:28:07.190Z,6.10
2022-12-05T21:30:35.249Z,6.10
2022-12-05T21:33:05.466Z,6.10
2022-12-05T21:35:33.363Z,6.10
2022-12-05T21:38:01.300Z,6.10
2022-12-05T21:40:29.762Z,6.10
2022-12-05T21:42:58.965Z,6.10
2022-12-05T21:45:27.357Z,6.10
2022-12-05T21:47:55.189Z,6.10
2022-12-05T21:50:23.002Z,6.10
2022-12-05T21:52:50.917Z,6.10
2022-12-05T21:55:18.736Z,6.10
2022-12-05T21:57:46.583Z,6.10
2022-12-05T22:00:15.799Z,6.10
2022-12-05T22:02:45.000Z,6.10
2022-12-05T22:05:12.916Z,6.10
2022-12-05T22:07:40.798Z,6.10
2022-12-05T22:10:09.029Z,6.10
2022-12-05T22:12:37.131Z,6.20
2022-12-05T22:15:05.352Z,6.20
2022-12-05T22:17:33.197Z,6.20
2022-12-05T22:20:02.562Z,6.10
2022-12-05T22:22:30.463Z,6.20
2022-12-05T22:24:59.072Z,6.20
2022-12-05T22:27:27.156Z,6.20
2022-12-05T22:29:55.059Z,6.20
2022-12-05T22:32:22.911Z,6.10
2022-12-05T22:34:51.097Z,6.10
2022-12-05T22:37:20.319Z,6.30
2022-12-05T22:39:48.155Z,6.20
2022-12-05T22:42:15.970Z,6.20
2022-12-05T22:44:44.782Z,6.20
2022-12-05T22:47:12.618Z,6.20
2022-12-05T22:49:40.451Z,6.20
2022-12-05T22:52:08.248Z,6.20
2022-12-05T22:54:37.439Z,6.20
2022-12-05T22:57:05.259Z,6.20
2022-12-05T22:59:33.079Z,6.30
2022-12-05T23:02:00.890Z,6.20
2022-12-05T23:04:29.054Z,6.20
2022-12-05T23:06:57.093Z,6.00
2022-12-05T23:09:25.179Z,6.30
2022-12-05T23:11:54.582Z,6.20
2022-12-05T23:14:22.664Z,6.20
2022-12-05T23:16:50.649Z,6.30
2022-12-05T23:19:18.685Z,6.20
2022-12-05T23:21:46.674Z,6.20
2022-12-05T23:24:14.722Z,6.20
2022-12-05T23:26:43.633Z,6.20
2022-12-05T23:29:13.949Z,6.20
2022-12-05T23:31:42.116Z,6.00
2022-12-05T23:34:10.708Z,6.30
2022-12-05T23:36:39.193Z,6.20
2022-12-05T23:39:07.257Z,6.30
2022-12-05T23:41:35.414Z,6.30
2022-12-05T23:44:03.662Z,6.30
2022-12-05T23:46:33.148Z,6.30
2022-12-05T23:49:01.252Z,6.30
2022-12-05T23:51:30.138Z,6.30
2022-12-05T23:53:59.418Z,6.30
2022-12-05T23:56:28.682Z,6.30
2022-12-05T23:58:57.104Z,6.30
